Strona główna
METAR-TAF:

METAR-TAF

Lotnisko :

Port lotniczy Rodez-Marcillac

Rodez, Francja

Szerokość geograficzna: 44-24N, Długość geograficzna: 002-29E, wysokość: 581 m

Aktualna obserwacja pogody

Raport powstał 34 minut temu, godzina 23:30 UTC
Wiatr 15 kt od wschodnio-południowy wschód
Temperatura 9°C
Wilgotność 49%
Ciśnienie 1018 hPa
Widzialność 10 km lub więcej
Brak chmur poniżej 1500 m i brak chmur cumulonimbus

METAR: LFCR 042330Z AUTO 12015KT CAVOK 09/M01 Q1018

czas: 02:04 (00:04 UTC)


TAF: brakujący

Obserwacja i prognoza pogody dla ponad 4000 lotnisk (raport METAR i TAF).

Dostępne stacje oznaczono żółtymi i czerwonymi punktami na mapie.

Najedź kursorem aby zobaczyć nazwę stacji.

Kliknij aby zobaczyć obserwacje i prognozy pogody.

Aby zmienić mapę: kliknij na zielony przycisk z czarnym krzyżykiem, aby powiększyć; na zielony przycisk z myślnikiem, aby pomniejszyć; na zielone strzałki, aby przejść do map sąsiednich.


METAR-TAF: